createdAt,value
2023-09-06T00:00:13.587Z,101524.91
2023-09-06T00:02:41.753Z,101530.59
2023-09-06T00:05:08.799Z,101530.81
2023-09-06T00:07:35.804Z,101524.31
2023-09-06T00:10:02.591Z,101518.06
2023-09-06T00:12:30.636Z,101518.88
2023-09-06T00:14:57.523Z,101510.91
2023-09-06T00:17:24.413Z,101514.16
2023-09-06T00:19:51.279Z,101511.50
2023-09-06T00:22:19.341Z,101503.19
2023-09-06T00:24:46.133Z,101508.91
2023-09-06T00:27:15.595Z,101506.44
2023-09-06T00:29:42.555Z,101510.69
2023-09-06T00:32:11.851Z,101506.91
2023-09-06T00:34:38.677Z,101507.63
2023-09-06T00:37:06.484Z,101500.81
2023-09-06T00:39:33.397Z,101509.22
2023-09-06T00:42:01.568Z,101512.72
2023-09-06T00:44:28.989Z,101511.28
2023-09-06T00:46:56.078Z,101510.81
2023-09-06T00:49:23.889Z,101508.22
2023-09-06T00:51:50.805Z,101504.34
2023-09-06T00:54:17.643Z,101499.63
2023-09-06T00:56:44.444Z,101500.38
2023-09-06T00:59:13.938Z,101502.44
2023-09-06T01:01:40.977Z,101510.47
2023-09-06T01:04:07.912Z,101503.22
2023-09-06T01:06:36.759Z,101503.50
2023-09-06T01:09:07.026Z,101508.78
2023-09-06T01:11:38.489Z,101508.47
2023-09-06T01:14:05.665Z,101506.72
2023-09-06T01:16:41.010Z,101511.53
2023-09-06T01:19:11.184Z,101506.38
2023-09-06T01:21:43.022Z,101506.56
2023-09-06T01:24:11.622Z,101505.28
2023-09-06T01:26:38.699Z,101506.78
2023-09-06T01:29:05.800Z,101511.63
2023-09-06T01:31:32.731Z,101510.41
2023-09-06T01:33:59.718Z,101499.28
2023-09-06T01:36:27.016Z,101501.88
2023-09-06T01:38:53.848Z,101506.19
2023-09-06T01:41:20.795Z,101502.41
2023-09-06T01:43:47.754Z,101507.31
2023-09-06T01:46:14.667Z,101510.56
2023-09-06T01:48:41.711Z,101506.63
2023-09-06T01:51:09.933Z,101512.56
2023-09-06T01:53:36.850Z,101514.03
2023-09-06T01:56:03.759Z,101518.75
2023-09-06T01:58:34.267Z,101517.91
2023-09-06T02:01:02.336Z,101521.13
2023-09-06T02:03:29.467Z,101519.06
2023-09-06T02:05:56.682Z,101519.56
2023-09-06T02:08:23.521Z,101525.72
2023-09-06T02:10:50.425Z,101526.25
2023-09-06T02:13:17.301Z,101524.09
2023-09-06T02:15:44.162Z,101521.78
2023-09-06T02:18:16.491Z,101524.41
2023-09-06T02:20:44.901Z,101513.88
2023-09-06T02:23:11.775Z,101516.53
2023-09-06T02:25:39.499Z,101514.69
2023-09-06T02:28:07.504Z,101511.25
2023-09-06T02:30:37.591Z,101512.75
2023-09-06T02:33:15.306Z,101517.25
2023-09-06T02:35:42.722Z,101509.22
2023-09-06T02:38:10.976Z,101502.72
2023-09-06T02:40:38.960Z,101504.34
2023-09-06T02:43:06.111Z,101509.44
2023-09-06T02:45:39.098Z,101508.53
2023-09-06T02:48:17.175Z,101507.94
2023-09-06T02:50:46.303Z,101503.19
2023-09-06T02:53:21.510Z,101506.16
2023-09-06T02:55:53.199Z,101503.78
2023-09-06T02:58:25.477Z,101493.72
2023-09-06T03:01:00.335Z,101508.78
2023-09-06T03:03:31.600Z,101499.81
2023-09-06T03:05:59.689Z,101500.97
2023-09-06T03:08:30.326Z,101500.06
2023-09-06T03:10:58.205Z,101501.06
2023-09-06T03:13:25.431Z,101503.28
2023-09-06T03:15:53.127Z,101498.94
2023-09-06T03:18:20.334Z,101496.78
2023-09-06T03:20:48.762Z,101491.03
2023-09-06T03:23:25.161Z,101488.06
2023-09-06T03:25:59.249Z,101486.81
2023-09-06T03:28:36.053Z,101485.84
2023-09-06T03:31:10.302Z,101487.56
2023-09-06T03:33:37.646Z,101488.97
2023-09-06T03:36:08.830Z,101490.53
2023-09-06T03:38:37.607Z,101484.94
2023-09-06T03:41:08.387Z,101488.88
2023-09-06T03:43:35.604Z,101489.13
2023-09-06T03:46:08.657Z,101503.22
2023-09-06T03:48:36.532Z,101492.66
2023-09-06T03:51:04.294Z,101495.31
2023-09-06T03:53:34.157Z,101490.78
2023-09-06T03:56:01.887Z,101498.03
2023-09-06T03:58:37.178Z,101502.88
2023-09-06T04:01:12.034Z,101503.13
2023-09-06T04:03:42.031Z,101497.06
2023-09-06T04:06:12.200Z,101501.63
2023-09-06T04:08:40.063Z,101498.72
2023-09-06T04:11:07.291Z,101499.19
2023-09-06T04:13:34.392Z,101506.75
2023-09-06T04:16:01.240Z,101504.28
2023-09-06T04:18:31.744Z,101505.59
2023-09-06T04:21:01.200Z,101500.16
2023-09-06T04:23:28.830Z,101506.44
2023-09-06T04:25:57.932Z,101513.97
2023-09-06T04:28:28.952Z,101505.59
2023-09-06T04:30:59.160Z,101513.63
2023-09-06T04:33:29.927Z,101511.66
2023-09-06T04:36:05.351Z,101511.34
2023-09-06T04:38:34.234Z,101514.59
2023-09-06T04:41:03.588Z,101509.69
2023-09-06T04:43:37.269Z,101508.75
2023-09-06T04:46:06.106Z,101520.91
2023-09-06T04:48:37.677Z,101517.13
2023-09-06T04:51:06.913Z,101516.78
2023-09-06T04:53:34.646Z,101514.88
2023-09-06T04:56:05.293Z,101511.72
2023-09-06T04:58:39.015Z,101504.81
2023-09-06T05:01:07.362Z,101508.38
2023-09-06T05:03:34.953Z,101506.09
2023-09-06T05:06:03.063Z,101504.44
2023-09-06T05:08:31.412Z,101501.28
2023-09-06T05:11:00.726Z,101507.28
2023-09-06T05:13:30.960Z,101513.56
2023-09-06T05:16:02.983Z,101519.84
2023-09-06T05:18:32.133Z,101518.13
2023-09-06T05:21:00.580Z,101520.63
2023-09-06T05:23:29.434Z,101525.94
2023-09-06T05:25:57.666Z,101527.00
2023-09-06T05:28:30.045Z,101527.00
2023-09-06T05:31:02.821Z,101533.25
2023-09-06T05:33:32.884Z,101538.59
2023-09-06T05:36:01.203Z,101530.63
2023-09-06T05:38:28.346Z,101531.56
2023-09-06T05:40:55.958Z,101535.44
2023-09-06T05:43:29.782Z,101538.00
2023-09-06T05:45:57.530Z,101536.59
2023-09-06T05:48:24.707Z,101535.78
2023-09-06T05:50:52.945Z,101536.44
2023-09-06T05:53:20.619Z,101537.16
2023-09-06T05:55:48.119Z,101543.63
2023-09-06T05:58:14.942Z,101544.78
2023-09-06T06:00:42.929Z,101550.72
2023-09-06T06:03:11.824Z,101550.00
2023-09-06T06:05:39.369Z,101555.09
2023-09-06T06:08:08.101Z,101545.56
2023-09-06T06:10:36.277Z,101547.44
2023-09-06T06:13:05.844Z,101548.50
2023-09-06T06:15:33.002Z,101556.19
2023-09-06T06:17:59.828Z,101550.06
2023-09-06T06:20:38.435Z,101559.53
2023-09-06T06:23:09.350Z,101554.63
2023-09-06T06:25:37.202Z,101554.97
2023-09-06T06:28:04.380Z,101555.19
2023-09-06T06:30:31.504Z,101558.75
2023-09-06T06:33:01.475Z,101551.78
2023-09-06T06:35:28.893Z,101554.78
2023-09-06T06:37:56.713Z,101551.22
2023-09-06T06:40:25.475Z,101558.97
2023-09-06T06:42:52.915Z,101562.06
2023-09-06T06:45:20.487Z,101561.59
2023-09-06T06:47:47.629Z,101571.16
2023-09-06T06:50:15.104Z,101560.16
2023-09-06T06:52:45.744Z,101571.53
2023-09-06T06:55:13.061Z,101565.03
2023-09-06T06:57:39.947Z,101562.78
2023-09-06T07:00:08.141Z,101565.44
2023-09-06T07:02:36.196Z,101560.59
2023-09-06T07:05:06.112Z,101558.47
2023-09-06T07:07:34.210Z,101556.19
2023-09-06T07:10:00.999Z,101556.34
2023-09-06T07:12:27.951Z,101552.88
2023-09-06T07:14:55.251Z,101554.88
2023-09-06T07:17:22.323Z,101559.41
2023-09-06T07:19:51.619Z,101560.31
2023-09-06T07:22:18.458Z,101557.94
2023-09-06T07:24:45.294Z,101553.66
2023-09-06T07:27:12.407Z,101551.38
2023-09-06T07:29:39.289Z,101552.19
2023-09-06T07:32:06.289Z,101557.53
2023-09-06T07:34:33.575Z,101567.13
2023-09-06T07:37:00.427Z,101562.94
2023-09-06T07:39:27.414Z,101560.28
2023-09-06T07:41:54.893Z,101552.88
2023-09-06T07:44:21.690Z,101556.25
2023-09-06T07:46:50.111Z,101556.63
2023-09-06T07:49:17.545Z,101556.75
2023-09-06T07:51:44.571Z,101551.38
2023-09-06T07:54:12.228Z,101563.63
2023-09-06T07:56:40.585Z,101560.44
2023-09-06T07:59:13.811Z,101568.16
2023-09-06T08:01:41.044Z,101566.56
2023-09-06T08:04:10.728Z,101561.81
2023-09-06T08:06:37.666Z,101572.56
2023-09-06T08:09:04.801Z,101565.97
2023-09-06T08:11:31.693Z,101568.22
2023-09-06T08:13:58.433Z,101571.59
2023-09-06T08:16:25.874Z,101573.31
2023-09-06T08:18:52.825Z,101566.00
2023-09-06T08:21:20.426Z,101574.53
2023-09-06T08:23:47.533Z,101575.22
2023-09-06T08:26:15.093Z,101578.56
2023-09-06T08:28:42.216Z,101571.50
2023-09-06T08:31:09.455Z,101578.69
2023-09-06T08:33:36.505Z,101577.81
2023-09-06T08:36:03.719Z,101577.59
2023-09-06T08:38:31.023Z,101573.06
2023-09-06T08:40:58.127Z,101576.16
2023-09-06T08:43:35.877Z,101572.91
2023-09-06T08:46:16.863Z,101581.09
2023-09-06T08:48:44.852Z,101583.34
2023-09-06T08:51:12.689Z,101578.72
2023-09-06T08:53:43.801Z,101577.41
2023-09-06T08:56:11.316Z,101575.25
2023-09-06T08:58:38.233Z,101573.59
2023-09-06T09:01:05.390Z,101574.69
2023-09-06T09:03:33.060Z,101585.63
2023-09-06T09:06:01.467Z,101576.03
2023-09-06T09:08:30.240Z,101585.34
2023-09-06T09:11:13.099Z,101584.53
2023-09-06T09:13:41.194Z,101587.00
2023-09-06T09:16:10.318Z,101582.34
2023-09-06T09:18:42.416Z,101586.16
2023-09-06T09:21:11.784Z,101585.66
2023-09-06T09:23:47.850Z,101578.25
2023-09-06T09:26:15.457Z,101588.91
2023-09-06T09:28:42.706Z,101585.34
2023-09-06T09:31:16.836Z,101583.69
2023-09-06T09:33:47.235Z,101584.53
2023-09-06T09:36:15.276Z,101584.81
2023-09-06T09:38:43.774Z,101579.34
2023-09-06T09:41:12.071Z,101575.25
2023-09-06T09:43:39.072Z,101581.25
2023-09-06T09:46:06.053Z,101579.06
2023-09-06T09:48:33.234Z,101578.00
2023-09-06T09:51:09.037Z,101587.00
2023-09-06T09:53:37.543Z,101574.13
2023-09-06T09:56:08.871Z,101582.34
2023-09-06T09:58:37.106Z,101572.75
2023-09-06T10:01:07.374Z,101574.09
2023-09-06T10:03:40.577Z,101571.91
2023-09-06T10:06:08.373Z,101579.84
2023-09-06T10:08:37.939Z,101578.47
2023-09-06T10:11:08.952Z,101583.91
2023-09-06T10:13:39.379Z,101587.16
2023-09-06T10:16:07.902Z,101575.94
2023-09-06T10:18:37.519Z,101582.78
2023-09-06T10:21:05.571Z,101568.31
2023-09-06T10:23:32.902Z,101579.25
2023-09-06T10:26:01.754Z,101580.06
2023-09-06T10:28:33.482Z,101581.16
2023-09-06T10:31:08.936Z,101575.47
2023-09-06T10:33:43.452Z,101585.59
2023-09-06T10:36:13.547Z,101585.09
2023-09-06T10:38:52.751Z,101583.97
2023-09-06T10:41:20.975Z,101583.44
2023-09-06T10:44:00.140Z,101590.28
2023-09-06T10:46:34.719Z,101590.53
2023-09-06T10:49:22.295Z,101588.66
2023-09-06T10:52:09.769Z,101581.53
2023-09-06T10:54:45.229Z,101579.34
2023-09-06T10:57:14.495Z,101587.00
2023-09-06T10:59:46.460Z,101582.88
2023-09-06T11:02:27.909Z,101565.88
2023-09-06T11:05:15.933Z,101576.53
2023-09-06T11:10:15.363Z,101565.03
2023-09-06T11:12:42.364Z,101566.72
2023-09-06T11:15:11.189Z,101559.34
2023-09-06T11:17:38.206Z,101562.31
2023-09-06T11:20:13.671Z,101556.88
2023-09-06T11:23:00.481Z,101553.84
2023-09-06T11:25:31.038Z,101556.25
2023-09-06T11:28:01.346Z,101553.56
2023-09-06T11:30:32.770Z,101556.59
2023-09-06T11:32:59.906Z,101561.56
2023-09-06T11:35:35.542Z,101551.13
2023-09-06T11:38:04.172Z,101549.19
2023-09-06T11:40:34.732Z,101549.25
2023-09-06T11:43:06.962Z,101552.78
2023-09-06T11:45:34.416Z,101562.06
2023-09-06T11:48:07.129Z,101552.22
2023-09-06T11:50:35.605Z,101551.19
2023-09-06T11:53:11.324Z,101548.97
2023-09-06T11:55:44.302Z,101549.00
2023-09-06T11:58:23.002Z,101556.41
2023-09-06T12:00:51.739Z,101553.91
2023-09-06T12:03:23.328Z,101551.47
2023-09-06T12:05:54.699Z,101544.28
2023-09-06T12:08:24.018Z,101548.97
2023-09-06T12:11:06.535Z,101555.50
2023-09-06T12:13:38.590Z,101549.53
2023-09-06T12:16:10.375Z,101551.75
2023-09-06T12:18:37.601Z,101549.56
2023-09-06T12:21:06.192Z,101549.00
2023-09-06T12:23:37.753Z,101541.31
2023-09-06T12:26:05.582Z,101536.41
2023-09-06T12:28:35.681Z,101540.28
2023-09-06T12:33:36.841Z,101535.34
2023-09-06T12:36:06.352Z,101533.97
2023-09-06T12:38:33.740Z,101519.75
2023-09-06T12:41:01.891Z,101519.22
2023-09-06T12:43:30.504Z,101517.81
2023-09-06T12:45:58.695Z,101513.41
2023-09-06T12:48:26.890Z,101518.31
2023-09-06T12:50:57.743Z,101511.28
2023-09-06T12:53:24.876Z,101513.47
2023-09-06T12:55:51.810Z,101517.03
2023-09-06T12:58:19.128Z,101514.31
2023-09-06T13:00:47.264Z,101514.03
2023-09-06T13:03:14.311Z,101515.69
2023-09-06T13:05:42.361Z,101516.50
2023-09-06T13:08:09.433Z,101516.19
2023-09-06T13:10:36.291Z,101506.38
2023-09-06T13:13:03.235Z,101507.47
2023-09-06T13:15:31.348Z,101499.84
2023-09-06T13:17:58.714Z,101497.13
2023-09-06T13:20:25.653Z,101493.53
2023-09-06T13:22:52.501Z,101493.25
2023-09-06T13:25:19.541Z,101498.75
2023-09-06T13:27:47.896Z,101490.00
2023-09-06T13:30:15.318Z,101485.34
2023-09-06T13:32:42.185Z,101486.13
2023-09-06T13:35:09.220Z,101488.59
2023-09-06T13:37:36.050Z,101485.31
2023-09-06T13:40:03.435Z,101494.59
2023-09-06T13:42:30.490Z,101491.63
2023-09-06T13:44:57.719Z,101488.63
2023-09-06T13:47:25.382Z,101474.44
2023-09-06T13:49:53.045Z,101477.16
2023-09-06T13:52:20.033Z,101473.88
2023-09-06T13:54:47.072Z,101463.75
2023-09-06T13:57:14.532Z,101466.22
2023-09-06T13:59:42.669Z,101469.50
2023-09-06T14:02:09.807Z,101467.31
2023-09-06T14:04:37.521Z,101461.59
2023-09-06T14:07:04.910Z,101458.28
2023-09-06T14:09:31.996Z,101458.84
2023-09-06T14:11:58.838Z,101464.06
2023-09-06T14:14:25.744Z,101458.59
2023-09-06T14:16:54.564Z,101467.63
2023-09-06T14:19:21.381Z,101464.88
2023-09-06T14:21:48.312Z,101469.78
2023-09-06T14:24:16.671Z,101471.97
2023-09-06T14:26:44.843Z,101482.31
2023-09-06T14:29:13.666Z,101476.03
2023-09-06T14:31:41.651Z,101476.31
2023-09-06T14:34:08.956Z,101470.31
2023-09-06T14:36:36.107Z,101470.88
2023-09-06T14:39:07.204Z,101471.13
2023-09-06T14:41:36.715Z,101466.22
2023-09-06T14:44:04.655Z,101469.25
2023-09-06T14:46:32.195Z,101470.63
2023-09-06T14:49:01.674Z,101461.88
2023-09-06T14:51:28.452Z,101465.97
2023-09-06T14:53:55.847Z,101459.97
2023-09-06T14:56:22.710Z,101460.25
2023-09-06T14:58:49.547Z,101461.31
2023-09-06T15:01:16.360Z,101464.03
2023-09-06T15:03:43.311Z,101461.03
2023-09-06T15:06:11.716Z,101464.34
2023-09-06T15:08:40.272Z,101461.31
2023-09-06T15:11:07.456Z,101459.44
2023-09-06T15:13:34.293Z,101453.97
2023-09-06T15:16:01.305Z,101454.50
2023-09-06T15:18:28.196Z,101460.22
2023-09-06T15:20:55.134Z,101457.25
2023-09-06T15:23:26.914Z,101456.16
2023-09-06T15:25:53.899Z,101456.66
2023-09-06T15:28:20.773Z,101453.94
2023-09-06T15:30:47.671Z,101454.78
2023-09-06T15:33:14.552Z,101455.03
2023-09-06T15:35:41.516Z,101459.44
2023-09-06T15:38:08.963Z,101454.50
2023-09-06T15:40:36.381Z,101451.25
2023-09-06T15:43:04.390Z,101454.22
2023-09-06T15:45:31.970Z,101448.16
2023-09-06T15:48:00.418Z,101450.34
2023-09-06T15:50:29.706Z,101446.00
2023-09-06T15:52:56.766Z,101444.63
2023-09-06T15:55:24.168Z,101454.72
2023-09-06T15:57:52.150Z,101455.25
2023-09-06T16:00:31.448Z,101453.06
2023-09-06T16:02:59.943Z,101449.00
2023-09-06T16:05:27.388Z,101447.88
2023-09-06T16:07:57.500Z,101447.38
2023-09-06T16:10:27.624Z,101444.88
2023-09-06T16:12:56.121Z,101437.50
2023-09-06T16:15:25.986Z,101440.81
2023-09-06T16:17:54.058Z,101445.16
2023-09-06T16:20:21.382Z,101441.59
2023-09-06T16:22:48.229Z,101435.88
2023-09-06T16:25:15.158Z,101440.25
2023-09-06T16:27:42.113Z,101436.16
2023-09-06T16:30:10.102Z,101449.03
2023-09-06T16:32:37.493Z,101442.50
2023-09-06T16:35:08.620Z,101444.38
2023-09-06T16:37:36.541Z,101440.81
2023-09-06T16:40:03.478Z,101438.91
2023-09-06T16:42:30.333Z,101440.56
2023-09-06T16:44:57.137Z,101436.47
2023-09-06T16:47:24.413Z,101443.25
2023-09-06T16:49:52.682Z,101445.19
2023-09-06T16:52:19.634Z,101449.00
2023-09-06T16:54:46.597Z,101441.41
2023-09-06T16:57:13.368Z,101440.28
2023-09-06T16:59:40.250Z,101446.88
2023-09-06T17:02:07.412Z,101442.22
2023-09-06T17:04:34.227Z,101435.94
2023-09-06T17:07:00.993Z,101429.91
2023-09-06T17:09:29.256Z,101434.00
2023-09-06T17:11:56.136Z,101443.56
2023-09-06T17:14:22.904Z,101441.13
2023-09-06T17:16:49.838Z,101439.75
2023-09-06T17:19:16.854Z,101440.53
2023-09-06T17:21:43.739Z,101431.00
2023-09-06T17:24:10.638Z,101436.72
2023-09-06T17:26:37.731Z,101434.81
2023-09-06T17:29:07.668Z,101428.00
2023-09-06T17:31:35.681Z,101431.81
2023-09-06T17:34:03.143Z,101434.53
2023-09-06T17:36:30.290Z,101438.94
2023-09-06T17:38:57.480Z,101437.53
2023-09-06T17:41:24.859Z,101438.91
2023-09-06T17:43:52.794Z,101441.06
2023-09-06T17:46:25.667Z,101450.63
2023-09-06T17:48:56.574Z,101446.81
2023-09-06T17:51:24.148Z,101448.72
2023-09-06T17:53:51.945Z,101438.34
2023-09-06T17:56:21.331Z,101445.72
2023-09-06T17:58:50.619Z,101435.31
2023-09-06T18:01:20.323Z,101440.78
2023-09-06T18:03:52.520Z,101436.69
2023-09-06T18:06:26.552Z,101442.91
2023-09-06T18:09:05.747Z,101441.50
2023-09-06T18:11:32.786Z,101441.25
2023-09-06T18:13:59.868Z,101443.13
2023-09-06T18:16:26.973Z,101448.88
2023-09-06T18:18:55.871Z,101449.91
2023-09-06T18:21:23.016Z,101452.94
2023-09-06T18:23:50.118Z,101452.38
2023-09-06T18:26:17.044Z,101451.56
2023-09-06T18:28:44.147Z,101451.03
2023-09-06T18:31:10.994Z,101452.63
2023-09-06T18:33:38.586Z,101449.59
2023-09-06T18:36:10.328Z,101457.75
2023-09-06T18:38:38.501Z,101464.84
2023-09-06T18:41:11.146Z,101468.72
2023-09-06T18:43:39.958Z,101464.34
2023-09-06T18:46:08.005Z,101465.94
2023-09-06T18:48:36.687Z,101464.88
2023-09-06T18:51:09.950Z,101466.22
2023-09-06T18:53:38.259Z,101470.03
2023-09-06T18:56:07.390Z,101470.03
2023-09-06T18:58:37.351Z,101470.28
2023-09-06T19:01:14.677Z,101472.63
2023-09-06T19:03:42.952Z,101475.31
2023-09-06T19:06:13.932Z,101481.06
2023-09-06T19:08:41.858Z,101488.47
2023-09-06T19:11:11.325Z,101493.91
2023-09-06T19:13:39.382Z,101493.06
2023-09-06T19:16:07.185Z,101492.47
2023-09-06T19:18:34.635Z,101502.84
2023-09-06T19:21:01.738Z,101503.97
2023-09-06T19:23:28.668Z,101506.69
2023-09-06T19:25:56.630Z,101506.34
2023-09-06T19:28:24.974Z,101502.56
2023-09-06T19:30:59.847Z,101508.56
2023-09-06T19:33:27.969Z,101509.13
2023-09-06T19:35:55.965Z,101504.97
2023-09-06T19:38:23.670Z,101505.47
2023-09-06T19:40:53.402Z,101502.47
2023-09-06T19:43:21.112Z,101499.50
2023-09-06T19:45:53.928Z,101506.53
2023-09-06T19:48:20.806Z,101504.09
2023-09-06T19:50:49.717Z,101510.03
2023-09-06T19:53:16.720Z,101504.56
2023-09-06T19:55:45.774Z,101512.16
2023-09-06T19:58:13.890Z,101508.91
2023-09-06T20:00:40.731Z,101511.88
2023-09-06T20:03:07.770Z,101512.16
2023-09-06T20:05:36.127Z,101517.81
2023-09-06T20:08:03.082Z,101518.41
2023-09-06T20:10:30.890Z,101524.41
2023-09-06T20:12:57.735Z,101514.88
2023-09-06T20:15:24.531Z,101521.44
2023-09-06T20:17:51.494Z,101518.94
2023-09-06T20:20:21.094Z,101525.44
2023-09-06T20:22:48.003Z,101519.94
2023-09-06T20:25:14.826Z,101520.75
2023-09-06T20:27:41.734Z,101523.72
2023-09-06T20:30:09.235Z,101523.72
2023-09-06T20:32:39.028Z,101528.91
2023-09-06T20:35:08.587Z,101525.94
2023-09-06T20:37:43.365Z,101526.72
2023-09-06T20:40:17.234Z,101519.34
2023-09-06T20:42:44.242Z,101518.97
2023-09-06T20:45:11.101Z,101517.97
2023-09-06T20:47:38.070Z,101521.59
2023-09-06T20:50:07.582Z,101524.59
2023-09-06T20:52:36.620Z,101524.28
2023-09-06T20:55:06.616Z,101525.94
2023-09-06T20:57:33.540Z,101529.97
2023-09-06T21:00:08.506Z,101528.38
2023-09-06T21:02:35.322Z,101526.78
2023-09-06T21:05:02.456Z,101532.22
2023-09-06T21:07:32.092Z,101526.97
2023-09-06T21:09:58.908Z,101532.53
2023-09-06T21:12:34.195Z,101522.19
2023-09-06T21:15:03.513Z,101523.78
2023-09-06T21:17:30.385Z,101521.31
2023-09-06T21:20:02.943Z,101521.91
2023-09-06T21:22:31.353Z,101521.31
2023-09-06T21:24:58.148Z,101519.72
2023-09-06T21:27:25.162Z,101524.28
2023-09-06T21:29:52.082Z,101522.31
2023-09-06T21:32:18.954Z,101525.09
2023-09-06T21:34:46.046Z,101524.84
2023-09-06T21:37:12.880Z,101526.22
2023-09-06T21:39:39.746Z,101525.41
2023-09-06T21:42:06.968Z,101531.66
2023-09-06T21:44:33.810Z,101526.47
2023-09-06T21:47:03.441Z,101527.25
2023-09-06T21:49:30.605Z,101524.03
2023-09-06T21:51:57.397Z,101525.09
2023-09-06T21:54:26.654Z,101528.59
2023-09-06T21:56:53.483Z,101525.56
2023-09-06T21:59:21.546Z,101524.44
2023-09-06T22:01:50.490Z,101525.75
2023-09-06T22:04:35.851Z,101529.81
2023-09-06T22:07:21.444Z,101522.34
2023-09-06T22:10:09.134Z,101518.75
2023-09-06T22:12:55.712Z,101515.75
2023-09-06T22:15:22.628Z,101525.22
2023-09-06T22:17:49.603Z,101521.69
2023-09-06T22:20:20.290Z,101527.97
2023-09-06T22:22:49.775Z,101517.06
2023-09-06T22:25:16.737Z,101515.44
2023-09-06T22:27:44.114Z,101516.25
2023-09-06T22:30:12.617Z,101513.22
2023-09-06T22:32:39.506Z,101515.09
2023-09-06T22:35:06.721Z,101516.69
2023-09-06T22:37:37.488Z,101507.97
2023-09-06T22:40:06.270Z,101513.41
2023-09-06T22:42:35.816Z,101512.50
2023-09-06T22:45:02.559Z,101512.25
2023-09-06T22:47:33.903Z,101516.84
2023-09-06T22:50:00.813Z,101513.81
2023-09-06T22:52:28.218Z,101521.41
2023-09-06T22:54:56.136Z,101519.19
2023-09-06T22:57:25.720Z,101522.44
2023-09-06T22:59:55.533Z,101522.69
2023-09-06T23:02:22.453Z,101533.22
2023-09-06T23:04:50.849Z,101525.84
2023-09-06T23:07:22.382Z,101520.25
2023-09-06T23:09:51.945Z,101521.53
2023-09-06T23:12:19.470Z,101518.22
2023-09-06T23:14:48.493Z,101515.50
2023-09-06T23:17:17.988Z,101528.19
2023-09-06T23:19:45.386Z,101521.94
2023-09-06T23:22:14.774Z,101522.88
2023-09-06T23:24:44.997Z,101522.38
2023-09-06T23:27:19.027Z,101525.09
2023-09-06T23:29:53.662Z,101516.34
2023-09-06T23:32:26.273Z,101518.59
2023-09-06T23:34:56.569Z,101527.81
2023-09-06T23:37:23.733Z,101523.94
2023-09-06T23:39:52.403Z,101529.38
2023-09-06T23:42:20.856Z,101527.72
2023-09-06T23:44:47.872Z,101529.88
2023-09-06T23:47:15.013Z,101537.53
2023-09-06T23:49:45.558Z,101529.88
2023-09-06T23:52:14.333Z,101521.97
2023-09-06T23:54:47.866Z,101526.25
2023-09-06T23:57:18.555Z,101526.50
2023-09-06T23:59:45.655Z,101519.66
